Airfield :
LOGIN :

Register | Disclaimer

   EN    FR    IT 

 










Legend :    VFR   Marginal VFR   IFR   Intensive IFR   Very Intensive IFR
Visi :
Ceiling :
>= 8 km
>= 3000ft
5 to 8 km
1000 to 3000 ft
1500m to 5 km
500 to 1000 ft
800 to 1500m
200 to 500 ft
< 800m
< 200 ft
Symbols :   Thunderstorms  Fog  Heavy snow  Heavy precipitations  Wind > 20 kt
SIGMETs :     Misc.  Thunderstorms  Icing  Turbulence  Mountain Waves  Volcanic Ashes






- Airport Elevation : 433 ft


LFOC - Chateaudun

CURRENT METAR :
  • 242130Z AUTO 23014KT CAVOK 10/05 Q1002

EXPIRED METARs :
  • 242100Z AUTO 22013KT CAVOK 11/06 Q1002
  • 242030Z AUTO 23015KT 9999 FEW039 OVC200 11/06 Q1001
  • 242000Z AUTO 22015KT 9999 SCT040 BKN160 BKN180 12/07 Q1001
  • 241930Z AUTO 22014KT CAVOK 12/07 Q1000
  • 241900Z AUTO 21014KT CAVOK 12/09 Q1000

TAF TAF LFOC
Valid from the 24 at 15:00 until the 25 at 15:00 UTC


241400Z 2415/2515 19010KT 9999 BKN030
TEMPO 2415/2420 21015G25KT 4900 -SHRA BKN030CB
PROB40
TEMPO 2417/2418 23020G30KT TSRA
BECMG 2423/2501 22015G25KT
TEMPO 2506/2508 4900 -SHRA BKN015TCU
TEMPO 2511/2515 29020G30KT 4900 -SHRA BKN020TCU



MET'MAP, your aeronautical weather chart ! - Copyright ORBIFLY December 2007 - Disclaimer

ORBIFLY MET'MAP TEAM :

Programming & Development : Alexandra Zaïnal
Concept & original design : Baudouin d'Aumeries
Assistance for programming : Marc-Olivier Méhu
Technical & hardware support : Manuel Goepfert

Contact : metmap@orbifly.com




SOURCES & CREDITS :

   NOAA